sensor_id;sensor_type;location;lat;lon;timestamp;temperature;humidity
9393;DHT22;4736;52.508;13.422;2023-03-07T00:02:49;-1.00;79.20
9393;DHT22;4736;52.508;13.422;2023-03-07T00:05:59;-1.10;79.30
9393;DHT22;4736;52.508;13.422;2023-03-07T00:09:03;-1.20;79.70
9393;DHT22;4736;52.508;13.422;2023-03-07T00:12:10;-1.10;79.50
9393;DHT22;4736;52.508;13.422;2023-03-07T00:15:13;-1.10;79.70
9393;DHT22;4736;52.508;13.422;2023-03-07T00:18:16;-1.20;79.80
9393;DHT22;4736;52.508;13.422;2023-03-07T00:21:20;-1.30;80.10
9393;DHT22;4736;52.508;13.422;2023-03-07T00:24:24;-1.30;80.20
9393;DHT22;4736;52.508;13.422;2023-03-07T00:27:29;-1.30;80.30
9393;DHT22;4736;52.508;13.422;2023-03-07T00:30:32;-1.30;80.30
9393;DHT22;4736;52.508;13.422;2023-03-07T00:33:36;-1.30;80.50
9393;DHT22;4736;52.508;13.422;2023-03-07T00:36:39;-1.30;80.60
9393;DHT22;4736;52.508;13.422;2023-03-07T00:39:42;-1.20;80.60
9393;DHT22;4736;52.508;13.422;2023-03-07T00:42:47;-1.10;80.40
9393;DHT22;4736;52.508;13.422;2023-03-07T00:45:50;-1.10;80.20
9393;DHT22;4736;52.508;13.422;2023-03-07T00:48:54;-1.10;80.00
9393;DHT22;4736;52.508;13.422;2023-03-07T00:51:57;-1.10;80.10
9393;DHT22;4736;52.508;13.422;2023-03-07T00:55:00;-1.10;80.10
9393;DHT22;4736;52.508;13.422;2023-03-07T00:58:05;-1.10;79.90
9393;DHT22;4736;52.508;13.422;2023-03-07T01:01:10;-1.10;79.80
9393;DHT22;4736;52.508;13.422;2023-03-07T01:04:13;-1.10;79.80
9393;DHT22;4736;52.508;13.422;2023-03-07T01:07:16;-1.30;80.10
9393;DHT22;4736;52.508;13.422;2023-03-07T01:10:19;-1.20;80.20
9393;DHT22;4736;52.508;13.422;2023-03-07T01:13:24;-1.30;80.30
9393;DHT22;4736;52.508;13.422;2023-03-07T01:16:29;-1.30;80.40
9393;DHT22;4736;52.508;13.422;2023-03-07T01:19:32;-1.10;80.40
9393;DHT22;4736;52.508;13.422;2023-03-07T01:22:35;-1.10;80.40
9393;DHT22;4736;52.508;13.422;2023-03-07T01:25:39;-1.10;80.40
9393;DHT22;4736;52.508;13.422;2023-03-07T01:28:44;-1.10;80.30
9393;DHT22;4736;52.508;13.422;2023-03-07T01:31:47;-1.10;80.40
9393;DHT22;4736;52.508;13.422;2023-03-07T01:34:51;-1.00;80.10
9393;DHT22;4736;52.508;13.422;2023-03-07T01:37:54;-0.90;79.80
9393;DHT22;4736;52.508;13.422;2023-03-07T01:40:58;-1.00;79.90
9393;DHT22;4736;52.508;13.422;2023-03-07T01:44:06;-0.90;80.00
9393;DHT22;4736;52.508;13.422;2023-03-07T01:47:13;-1.00;79.90
9393;DHT22;4736;52.508;13.422;2023-03-07T01:50:17;-0.90;80.10
9393;DHT22;4736;52.508;13.422;2023-03-07T01:53:20;-1.00;80.10
9393;DHT22;4736;52.508;13.422;2023-03-07T01:56:23;-1.00;80.40
9393;DHT22;4736;52.508;13.422;2023-03-07T01:59:30;-1.00;80.50
9393;DHT22;4736;52.508;13.422;2023-03-07T02:02:35;-1.00;80.60
9393;DHT22;4736;52.508;13.422;2023-03-07T02:05:41;-1.00;80.70
9393;DHT22;4736;52.508;13.422;2023-03-07T02:08:48;-0.90;80.70
9393;DHT22;4736;52.508;13.422;2023-03-07T02:11:51;-0.80;80.70
9393;DHT22;4736;52.508;13.422;2023-03-07T02:14:56;-0.70;80.70
9393;DHT22;4736;52.508;13.422;2023-03-07T02:17:59;-0.80;80.70
9393;DHT22;4736;52.508;13.422;2023-03-07T02:21:05;-0.80;81.00
9393;DHT22;4736;52.508;13.422;2023-03-07T02:24:21;-0.80;81.20
9393;DHT22;4736;52.508;13.422;2023-03-07T02:27:30;-0.80;81.50
9393;DHT22;4736;52.508;13.422;2023-03-07T02:30:35;-0.70;81.70
9393;DHT22;4736;52.508;13.422;2023-03-07T02:33:39;-0.70;81.60
9393;DHT22;4736;52.508;13.422;2023-03-07T02:36:45;-0.50;81.50
9393;DHT22;4736;52.508;13.422;2023-03-07T02:39:48;-0.40;81.30
9393;DHT22;4736;52.508;13.422;2023-03-07T02:42:54;-0.50;81.20
9393;DHT22;4736;52.508;13.422;2023-03-07T02:46:00;-0.40;81.30
9393;DHT22;4736;52.508;13.422;2023-03-07T02:49:03;-0.30;81.30
9393;DHT22;4736;52.508;13.422;2023-03-07T02:52:07;-0.30;81.10
9393;DHT22;4736;52.508;13.422;2023-03-07T02:55:11;-0.10;81.00
9393;DHT22;4736;52.508;13.422;2023-03-07T02:58:16;-0.10;80.70
9393;DHT22;4736;52.508;13.422;2023-03-07T03:01:19;-0.10;80.60
9393;DHT22;4736;52.508;13.422;2023-03-07T03:04:22;-0.10;80.40
9393;DHT22;4736;52.508;13.422;2023-03-07T03:07:25;-0.10;80.40
9393;DHT22;4736;52.508;13.422;2023-03-07T03:10:28;-0.10;80.30
9393;DHT22;4736;52.508;13.422;2023-03-07T03:13:33;-0.10;80.40
9393;DHT22;4736;52.508;13.422;2023-03-07T03:16:37;-0.10;80.40
9393;DHT22;4736;52.508;13.422;2023-03-07T03:19:40;-0.10;80.40
9393;DHT22;4736;52.508;13.422;2023-03-07T03:22:45;0.00;80.20
9393;DHT22;4736;52.508;13.422;2023-03-07T03:25:57;0.00;80.00
9393;DHT22;4736;52.508;13.422;2023-03-07T03:29:02;0.00;80.00
9393;DHT22;4736;52.508;13.422;2023-03-07T03:32:06;0.00;79.50
9393;DHT22;4736;52.508;13.422;2023-03-07T03:35:10;0.00;79.60
9393;DHT22;4736;52.508;13.422;2023-03-07T03:38:13;0.10;79.10
9393;DHT22;4736;52.508;13.422;2023-03-07T03:41:16;0.00;79.20
9393;DHT22;4736;52.508;13.422;2023-03-07T03:44:21;0.00;79.40
9393;DHT22;4736;52.508;13.422;2023-03-07T03:47:24;0.20;79.10
9393;DHT22;4736;52.508;13.422;2023-03-07T03:50:27;0.10;79.00
9393;DHT22;4736;52.508;13.422;2023-03-07T03:53:31;0.20;78.90
9393;DHT22;4736;52.508;13.422;2023-03-07T03:56:34;0.20;78.70
9393;DHT22;4736;52.508;13.422;2023-03-07T03:59:39;0.20;78.70
9393;DHT22;4736;52.508;13.422;2023-03-07T04:02:42;0.30;78.50
9393;DHT22;4736;52.508;13.422;2023-03-07T04:05:45;0.30;78.30
9393;DHT22;4736;52.508;13.422;2023-03-07T04:08:49;0.20;78.50
9393;DHT22;4736;52.508;13.422;2023-03-07T04:11:52;0.20;78.60
9393;DHT22;4736;52.508;13.422;2023-03-07T04:14:57;0.20;78.40
9393;DHT22;4736;52.508;13.422;2023-03-07T04:18:00;0.20;78.40
9393;DHT22;4736;52.508;13.422;2023-03-07T04:21:03;0.30;78.40
9393;DHT22;4736;52.508;13.422;2023-03-07T04:24:07;0.20;78.50
9393;DHT22;4736;52.508;13.422;2023-03-07T04:27:11;0.30;78.50
9393;DHT22;4736;52.508;13.422;2023-03-07T04:30:15;0.40;78.30
9393;DHT22;4736;52.508;13.422;2023-03-07T04:33:19;0.40;78.30
9393;DHT22;4736;52.508;13.422;2023-03-07T04:36:23;0.40;78.30
9393;DHT22;4736;52.508;13.422;2023-03-07T04:39:26;0.50;78.10
9393;DHT22;4736;52.508;13.422;2023-03-07T04:42:29;0.60;77.80
9393;DHT22;4736;52.508;13.422;2023-03-07T04:45:35;0.50;78.00
9393;DHT22;4736;52.508;13.422;2023-03-07T04:48:39;0.50;78.10
9393;DHT22;4736;52.508;13.422;2023-03-07T04:51:42;0.60;78.00
9393;DHT22;4736;52.508;13.422;2023-03-07T04:54:45;0.60;78.00
9393;DHT22;4736;52.508;13.422;2023-03-07T04:57:48;0.60;78.10
9393;DHT22;4736;52.508;13.422;2023-03-07T05:00:54;0.60;78.40
9393;DHT22;4736;52.508;13.422;2023-03-07T05:03:58;0.60;78.70
9393;DHT22;4736;52.508;13.422;2023-03-07T05:07:01;0.50;79.30
9393;DHT22;4736;52.508;13.422;2023-03-07T05:10:05;0.40;79.70
9393;DHT22;4736;52.508;13.422;2023-03-07T05:13:09;0.50;79.70
9393;DHT22;4736;52.508;13.422;2023-03-07T05:16:13;0.50;79.70
9393;DHT22;4736;52.508;13.422;2023-03-07T05:19:18;0.40;80.30
9393;DHT22;4736;52.508;13.422;2023-03-07T05:22:21;0.40;80.40
9393;DHT22;4736;52.508;13.422;2023-03-07T05:25:24;0.30;80.40
9393;DHT22;4736;52.508;13.422;2023-03-07T05:28:27;0.40;80.60
9393;DHT22;4736;52.508;13.422;2023-03-07T05:31:31;0.40;80.60
9393;DHT22;4736;52.508;13.422;2023-03-07T05:34:35;0.40;80.70
9393;DHT22;4736;52.508;13.422;2023-03-07T05:37:38;0.40;80.70
9393;DHT22;4736;52.508;13.422;2023-03-07T05:40:41;0.40;80.70
9393;DHT22;4736;52.508;13.422;2023-03-07T05:43:45;0.50;80.70
9393;DHT22;4736;52.508;13.422;2023-03-07T05:46:49;0.50;80.40
9393;DHT22;4736;52.508;13.422;2023-03-07T05:49:52;0.50;80.40
9393;DHT22;4736;52.508;13.422;2023-03-07T05:52:55;0.50;80.50
9393;DHT22;4736;52.508;13.422;2023-03-07T05:55:59;0.50;80.50
9393;DHT22;4736;52.508;13.422;2023-03-07T05:59:02;0.50;80.60
9393;DHT22;4736;52.508;13.422;2023-03-07T06:02:07;0.50;80.70
9393;DHT22;4736;52.508;13.422;2023-03-07T06:05:10;0.60;80.50
9393;DHT22;4736;52.508;13.422;2023-03-07T06:08:13;0.50;80.40
9393;DHT22;4736;52.508;13.422;2023-03-07T06:11:17;0.60;80.50
9393;DHT22;4736;52.508;13.422;2023-03-07T06:14:20;0.60;80.40
9393;DHT22;4736;52.508;13.422;2023-03-07T06:17:24;0.60;80.40
9393;DHT22;4736;52.508;13.422;2023-03-07T06:20:27;0.60;80.40
9393;DHT22;4736;52.508;13.422;2023-03-07T06:23:31;0.60;80.40
9393;DHT22;4736;52.508;13.422;2023-03-07T06:26:34;0.80;80.20
9393;DHT22;4736;52.508;13.422;2023-03-07T06:29:37;0.80;80.10
9393;DHT22;4736;52.508;13.422;2023-03-07T06:32:42;0.80;80.10
9393;DHT22;4736;52.508;13.422;2023-03-07T06:35:45;0.80;80.00
9393;DHT22;4736;52.508;13.422;2023-03-07T06:38:49;0.80;80.10
9393;DHT22;4736;52.508;13.422;2023-03-07T06:41:52;0.90;79.90
9393;DHT22;4736;52.508;13.422;2023-03-07T06:44:55;1.00;79.70
9393;DHT22;4736;52.508;13.422;2023-03-07T06:48:00;1.00;79.70
9393;DHT22;4736;52.508;13.422;2023-03-07T06:51:06;1.00;79.70
9393;DHT22;4736;52.508;13.422;2023-03-07T06:54:09;1.00;79.50
9393;DHT22;4736;52.508;13.422;2023-03-07T06:57:12;1.00;79.60
9393;DHT22;4736;52.508;13.422;2023-03-07T07:00:16;1.00;79.60
9393;DHT22;4736;52.508;13.422;2023-03-07T07:03:21;1.10;79.20
9393;DHT22;4736;52.508;13.422;2023-03-07T07:06:24;1.10;79.20
9393;DHT22;4736;52.508;13.422;2023-03-07T07:09:27;1.10;79.20
9393;DHT22;4736;52.508;13.422;2023-03-07T07:12:31;1.10;79.30
9393;DHT22;4736;52.508;13.422;2023-03-07T07:15:34;1.20;79.20
9393;DHT22;4736;52.508;13.422;2023-03-07T07:18:38;1.30;78.70
9393;DHT22;4736;52.508;13.422;2023-03-07T07:21:41;1.30;78.60
9393;DHT22;4736;52.508;13.422;2023-03-07T07:24:44;1.40;78.60
9393;DHT22;4736;52.508;13.422;2023-03-07T07:27:49;1.40;78.50
9393;DHT22;4736;52.508;13.422;2023-03-07T07:30:52;1.40;78.70
9393;DHT22;4736;52.508;13.422;2023-03-07T07:33:56;1.40;78.70
9393;DHT22;4736;52.508;13.422;2023-03-07T07:37:00;1.50;78.40
9393;DHT22;4736;52.508;13.422;2023-03-07T07:40:04;1.50;78.20
9393;DHT22;4736;52.508;13.422;2023-03-07T07:43:13;1.60;78.00
9393;DHT22;4736;52.508;13.422;2023-03-07T07:46:16;1.70;78.20
9393;DHT22;4736;52.508;13.422;2023-03-07T07:49:21;1.80;77.80
9393;DHT22;4736;52.508;13.422;2023-03-07T07:52:24;1.80;77.60
9393;DHT22;4736;52.508;13.422;2023-03-07T07:55:27;1.90;77.30
9393;DHT22;4736;52.508;13.422;2023-03-07T07:58:30;1.80;77.50
9393;DHT22;4736;52.508;13.422;2023-03-07T08:01:34;1.90;77.30
9393;DHT22;4736;52.508;13.422;2023-03-07T08:04:39;1.90;77.20
9393;DHT22;4736;52.508;13.422;2023-03-07T08:07:42;1.90;77.30
9393;DHT22;4736;52.508;13.422;2023-03-07T08:10:45;1.90;77.20
9393;DHT22;4736;52.508;13.422;2023-03-07T08:13:49;2.00;76.80
9393;DHT22;4736;52.508;13.422;2023-03-07T08:16:52;2.00;76.80
9393;DHT22;4736;52.508;13.422;2023-03-07T08:19:56;2.10;77.00
9393;DHT22;4736;52.508;13.422;2023-03-07T08:23:04;2.20;76.70
9393;DHT22;4736;52.508;13.422;2023-03-07T08:26:08;2.20;76.50
9393;DHT22;4736;52.508;13.422;2023-03-07T08:29:11;2.20;76.20
9393;DHT22;4736;52.508;13.422;2023-03-07T08:32:15;2.10;76.50
9393;DHT22;4736;52.508;13.422;2023-03-07T08:35:19;2.10;76.70
9393;DHT22;4736;52.508;13.422;2023-03-07T08:38:22;2.10;76.90
9393;DHT22;4736;52.508;13.422;2023-03-07T08:41:28;2.20;77.10
9393;DHT22;4736;52.508;13.422;2023-03-07T08:44:31;2.30;77.00
9393;DHT22;4736;52.508;13.422;2023-03-07T08:47:34;2.40;76.90
9393;DHT22;4736;52.508;13.422;2023-03-07T08:50:39;2.50;76.80
9393;DHT22;4736;52.508;13.422;2023-03-07T08:53:43;2.50;76.80
9393;DHT22;4736;52.508;13.422;2023-03-07T08:56:46;2.70;76.70
9393;DHT22;4736;52.508;13.422;2023-03-07T08:59:50;2.80;76.20
9393;DHT22;4736;52.508;13.422;2023-03-07T09:02:53;2.80;76.20
9393;DHT22;4736;52.508;13.422;2023-03-07T09:06:00;2.90;76.20
9393;DHT22;4736;52.508;13.422;2023-03-07T09:09:04;3.10;75.70
9393;DHT22;4736;52.508;13.422;2023-03-07T09:12:08;3.10;75.40
9393;DHT22;4736;52.508;13.422;2023-03-07T09:15:11;3.30;75.70
9393;DHT22;4736;52.508;13.422;2023-03-07T09:18:14;3.30;74.90
9393;DHT22;4736;52.508;13.422;2023-03-07T09:21:18;3.40;74.70
9393;DHT22;4736;52.508;13.422;2023-03-07T09:24:21;3.50;74.20
9393;DHT22;4736;52.508;13.422;2023-03-07T09:27:27;3.50;73.90
9393;DHT22;4736;52.508;13.422;2023-03-07T09:30:30;3.50;73.80
9393;DHT22;4736;52.508;13.422;2023-03-07T09:33:33;3.50;73.80
9393;DHT22;4736;52.508;13.422;2023-03-07T09:36:38;3.40;74.30
9393;DHT22;4736;52.508;13.422;2023-03-07T09:39:41;3.40;74.60
9393;DHT22;4736;52.508;13.422;2023-03-07T09:42:53;3.50;74.20
9393;DHT22;4736;52.508;13.422;2023-03-07T09:46:02;3.50;74.10
9393;DHT22;4736;52.508;13.422;2023-03-07T09:49:20;3.50;73.70
9393;DHT22;4736;52.508;13.422;2023-03-07T09:52:30;3.50;73.70
9393;DHT22;4736;52.508;13.422;2023-03-07T09:55:34;3.60;73.80
9393;DHT22;4736;52.508;13.422;2023-03-07T09:58:42;3.70;73.90
9393;DHT22;4736;52.508;13.422;2023-03-07T10:01:48;3.80;73.30
9393;DHT22;4736;52.508;13.422;2023-03-07T10:04:58;3.90;73.20
9393;DHT22;4736;52.508;13.422;2023-03-07T10:08:08;4.00;72.40
9393;DHT22;4736;52.508;13.422;2023-03-07T10:11:23;3.90;72.80
9393;DHT22;4736;52.508;13.422;2023-03-07T10:14:40;4.10;73.20
9393;DHT22;4736;52.508;13.422;2023-03-07T10:21:21;4.20;71.50
9393;DHT22;4736;52.508;13.422;2023-03-07T10:24:56;4.10;72.20
9393;DHT22;4736;52.508;13.422;2023-03-07T10:28:14;4.10;72.60
9393;DHT22;4736;52.508;13.422;2023-03-07T10:31:23;4.20;71.50
9393;DHT22;4736;52.508;13.422;2023-03-07T10:34:28;4.10;71.80
9393;DHT22;4736;52.508;13.422;2023-03-07T10:37:42;4.00;71.90
9393;DHT22;4736;52.508;13.422;2023-03-07T10:40:51;4.00;72.30
9393;DHT22;4736;52.508;13.422;2023-03-07T10:43:56;4.00;72.50
9393;DHT22;4736;52.508;13.422;2023-03-07T10:47:00;3.90;71.20
9393;DHT22;4736;52.508;13.422;2023-03-07T10:50:18;3.80;71.90
9393;DHT22;4736;52.508;13.422;2023-03-07T10:53:25;3.70;70.60
9393;DHT22;4736;52.508;13.422;2023-03-07T10:56:30;3.60;69.30
9393;DHT22;4736;52.508;13.422;2023-03-07T10:59:34;3.50;69.90
9393;DHT22;4736;52.508;13.422;2023-03-07T11:02:42;3.50;70.00
9393;DHT22;4736;52.508;13.422;2023-03-07T11:05:47;3.40;69.70
9393;DHT22;4736;52.508;13.422;2023-03-07T11:08:50;3.40;70.70
9393;DHT22;4736;52.508;13.422;2023-03-07T11:11:56;3.40;71.60
9393;DHT22;4736;52.508;13.422;2023-03-07T11:15:10;3.50;71.50
9393;DHT22;4736;52.508;13.422;2023-03-07T11:18:25;3.50;72.10
9393;DHT22;4736;52.508;13.422;2023-03-07T11:21:31;3.50;72.50
9393;DHT22;4736;52.508;13.422;2023-03-07T11:24:37;3.50;72.50
9393;DHT22;4736;52.508;13.422;2023-03-07T11:28:02;3.40;71.70
9393;DHT22;4736;52.508;13.422;2023-03-07T11:31:12;3.30;71.40
9393;DHT22;4736;52.508;13.422;2023-03-07T11:34:31;3.50;70.90
9393;DHT22;4736;52.508;13.422;2023-03-07T11:37:38;3.50;71.30
9393;DHT22;4736;52.508;13.422;2023-03-07T11:40:49;3.50;70.40
9393;DHT22;4736;52.508;13.422;2023-03-07T11:44:09;3.40;70.10
9393;DHT22;4736;52.508;13.422;2023-03-07T11:47:25;3.30;70.70
9393;DHT22;4736;52.508;13.422;2023-03-07T11:50:33;3.30;70.40
9393;DHT22;4736;52.508;13.422;2023-03-07T11:53:55;3.30;70.50
9393;DHT22;4736;52.508;13.422;2023-03-07T11:57:09;3.30;70.80
9393;DHT22;4736;52.508;13.422;2023-03-07T12:00:22;3.30;71.00
9393;DHT22;4736;52.508;13.422;2023-03-07T12:07:08;3.30;71.00
9393;DHT22;4736;52.508;13.422;2023-03-07T12:10:25;3.30;71.20
9393;DHT22;4736;52.508;13.422;2023-03-07T12:13:39;3.20;71.30
9393;DHT22;4736;52.508;13.422;2023-03-07T12:16:52;3.10;71.50
9393;DHT22;4736;52.508;13.422;2023-03-07T12:20:09;3.10;72.00
9393;DHT22;4736;52.508;13.422;2023-03-07T12:23:19;3.10;71.90
9393;DHT22;4736;52.508;13.422;2023-03-07T12:26:27;3.10;71.90
9393;DHT22;4736;52.508;13.422;2023-03-07T12:29:36;3.10;72.30
9393;DHT22;4736;52.508;13.422;2023-03-07T12:32:42;3.10;72.30
9393;DHT22;4736;52.508;13.422;2023-03-07T12:35:50;3.10;72.10
9393;DHT22;4736;52.508;13.422;2023-03-07T12:39:00;3.00;72.30
9393;DHT22;4736;52.508;13.422;2023-03-07T12:42:10;2.90;73.00
9393;DHT22;4736;52.508;13.422;2023-03-07T12:45:18;2.80;73.50
9393;DHT22;4736;52.508;13.422;2023-03-07T12:48:28;2.90;73.70
9393;DHT22;4736;52.508;13.422;2023-03-07T12:51:39;2.80;73.90
9393;DHT22;4736;52.508;13.422;2023-03-07T12:54:48;2.80;74.40
9393;DHT22;4736;52.508;13.422;2023-03-07T12:58:00;2.70;75.00
9393;DHT22;4736;52.508;13.422;2023-03-07T13:01:11;2.70;74.80
9393;DHT22;4736;52.508;13.422;2023-03-07T13:04:23;2.50;75.30
9393;DHT22;4736;52.508;13.422;2023-03-07T13:07:30;2.50;75.40
9393;DHT22;4736;52.508;13.422;2023-03-07T13:10:34;2.50;75.70
9393;DHT22;4736;52.508;13.422;2023-03-07T13:13:49;2.50;76.00
9393;DHT22;4736;52.508;13.422;2023-03-07T13:16:53;2.50;75.90
9393;DHT22;4736;52.508;13.422;2023-03-07T13:19:58;2.50;75.70
9393;DHT22;4736;52.508;13.422;2023-03-07T13:23:21;2.40;76.00
9393;DHT22;4736;52.508;13.422;2023-03-07T13:26:25;2.30;76.50
9393;DHT22;4736;52.508;13.422;2023-03-07T13:30:02;2.30;76.70
9393;DHT22;4736;52.508;13.422;2023-03-07T13:33:24;2.20;76.90
9393;DHT22;4736;52.508;13.422;2023-03-07T13:36:34;2.10;77.20
9393;DHT22;4736;52.508;13.422;2023-03-07T13:39:38;2.20;77.20
9393;DHT22;4736;52.508;13.422;2023-03-07T13:43:00;2.20;77.10
9393;DHT22;4736;52.508;13.422;2023-03-07T13:46:06;2.20;77.40
9393;DHT22;4736;52.508;13.422;2023-03-07T13:49:41;2.30;77.10
9393;DHT22;4736;52.508;13.422;2023-03-07T13:52:46;2.30;76.90
9393;DHT22;4736;52.508;13.422;2023-03-07T13:55:55;2.20;76.90
9393;DHT22;4736;52.508;13.422;2023-03-07T13:59:01;2.30;76.60
9393;DHT22;4736;52.508;13.422;2023-03-07T14:02:07;2.20;76.70
9393;DHT22;4736;52.508;13.422;2023-03-07T14:05:14;2.20;76.90
9393;DHT22;4736;52.508;13.422;2023-03-07T14:08:22;2.20;77.10
9393;DHT22;4736;52.508;13.422;2023-03-07T14:11:31;2.20;76.80
9393;DHT22;4736;52.508;13.422;2023-03-07T14:14:51;2.00;77.00
9393;DHT22;4736;52.508;13.422;2023-03-07T14:18:14;2.00;77.20
9393;DHT22;4736;52.508;13.422;2023-03-07T14:21:31;2.10;77.40
9393;DHT22;4736;52.508;13.422;2023-03-07T14:24:56;2.20;76.70
9393;DHT22;4736;52.508;13.422;2023-03-07T14:28:18;2.20;76.10
9393;DHT22;4736;52.508;13.422;2023-03-07T14:31:23;2.20;76.20
9393;DHT22;4736;52.508;13.422;2023-03-07T14:34:30;2.20;76.20
9393;DHT22;4736;52.508;13.422;2023-03-07T14:37:33;2.30;76.30
9393;DHT22;4736;52.508;13.422;2023-03-07T14:40:47;2.20;76.60
9393;DHT22;4736;52.508;13.422;2023-03-07T14:44:05;2.40;76.60
9393;DHT22;4736;52.508;13.422;2023-03-07T14:47:23;2.30;75.80
9393;DHT22;4736;52.508;13.422;2023-03-07T14:50:31;2.30;75.60
9393;DHT22;4736;52.508;13.422;2023-03-07T14:53:35;2.30;75.90
9393;DHT22;4736;52.508;13.422;2023-03-07T14:56:39;2.30;75.60
9393;DHT22;4736;52.508;13.422;2023-03-07T15:00:02;2.40;75.20
9393;DHT22;4736;52.508;13.422;2023-03-07T15:03:07;2.40;75.40
9393;DHT22;4736;52.508;13.422;2023-03-07T15:06:14;2.50;75.30
9393;DHT22;4736;52.508;13.422;2023-03-07T15:09:23;2.50;75.00
9393;DHT22;4736;52.508;13.422;2023-03-07T15:12:28;2.50;75.00
9393;DHT22;4736;52.508;13.422;2023-03-07T15:15:34;2.50;74.80
9393;DHT22;4736;52.508;13.422;2023-03-07T15:18:40;2.50;75.10
9393;DHT22;4736;52.508;13.422;2023-03-07T15:21:46;2.50;74.80
9393;DHT22;4736;52.508;13.422;2023-03-07T15:24:51;2.40;74.80
9393;DHT22;4736;52.508;13.422;2023-03-07T15:27:59;2.40;74.90
9393;DHT22;4736;52.508;13.422;2023-03-07T15:31:03;2.50;75.10
9393;DHT22;4736;52.508;13.422;2023-03-07T15:34:11;2.50;75.00
9393;DHT22;4736;52.508;13.422;2023-03-07T15:37:20;2.50;74.80
9393;DHT22;4736;52.508;13.422;2023-03-07T15:40:25;2.50;74.90
9393;DHT22;4736;52.508;13.422;2023-03-07T15:43:34;2.40;75.00
9393;DHT22;4736;52.508;13.422;2023-03-07T15:46:39;2.40;75.10
9393;DHT22;4736;52.508;13.422;2023-03-07T15:49:45;2.40;74.90
9393;DHT22;4736;52.508;13.422;2023-03-07T15:52:51;2.50;75.10
9393;DHT22;4736;52.508;13.422;2023-03-07T15:55:55;2.40;75.40
9393;DHT22;4736;52.508;13.422;2023-03-07T15:59:03;2.40;75.40
9393;DHT22;4736;52.508;13.422;2023-03-07T16:05:50;2.50;75.30
9393;DHT22;4736;52.508;13.422;2023-03-07T16:08:53;2.50;75.20
9393;DHT22;4736;52.508;13.422;2023-03-07T16:11:57;2.50;75.20
9393;DHT22;4736;52.508;13.422;2023-03-07T16:15:02;2.50;75.30
9393;DHT22;4736;52.508;13.422;2023-03-07T16:18:05;2.60;74.90
9393;DHT22;4736;52.508;13.422;2023-03-07T16:21:10;2.50;74.60
9393;DHT22;4736;52.508;13.422;2023-03-07T16:24:14;2.50;74.90
9393;DHT22;4736;52.508;13.422;2023-03-07T16:27:18;2.50;75.10
9393;DHT22;4736;52.508;13.422;2023-03-07T16:30:25;2.40;75.40
9393;DHT22;4736;52.508;13.422;2023-03-07T16:33:30;2.40;75.30
9393;DHT22;4736;52.508;13.422;2023-03-07T16:36:33;2.40;75.20
9393;DHT22;4736;52.508;13.422;2023-03-07T16:39:36;2.30;75.30
9393;DHT22;4736;52.508;13.422;2023-03-07T16:42:41;2.30;75.50
9393;DHT22;4736;52.508;13.422;2023-03-07T16:45:46;2.30;75.20
9393;DHT22;4736;52.508;13.422;2023-03-07T16:48:49;2.40;75.00
9393;DHT22;4736;52.508;13.422;2023-03-07T16:51:52;2.30;75.00
9393;DHT22;4736;52.508;13.422;2023-03-07T16:55:10;2.30;75.30
9393;DHT22;4736;52.508;13.422;2023-03-07T16:58:19;2.20;75.40
9393;DHT22;4736;52.508;13.422;2023-03-07T17:01:25;2.20;75.40
9393;DHT22;4736;52.508;13.422;2023-03-07T17:04:28;2.20;75.40
9393;DHT22;4736;52.508;13.422;2023-03-07T17:07:31;2.20;75.20
9393;DHT22;4736;52.508;13.422;2023-03-07T17:10:35;2.20;75.00
9393;DHT22;4736;52.508;13.422;2023-03-07T17:13:38;2.20;74.80
9393;DHT22;4736;52.508;13.422;2023-03-07T17:16:44;2.20;74.90
9393;DHT22;4736;52.508;13.422;2023-03-07T17:19:48;2.20;74.80
9393;DHT22;4736;52.508;13.422;2023-03-07T17:22:51;2.20;74.70
9393;DHT22;4736;52.508;13.422;2023-03-07T17:25:55;2.20;74.80
9393;DHT22;4736;52.508;13.422;2023-03-07T17:29:00;2.20;74.90
9393;DHT22;4736;52.508;13.422;2023-03-07T17:32:06;2.10;75.00
9393;DHT22;4736;52.508;13.422;2023-03-07T17:35:09;2.10;75.10
9393;DHT22;4736;52.508;13.422;2023-03-07T17:38:12;2.20;75.00
9393;DHT22;4736;52.508;13.422;2023-03-07T17:41:15;2.10;74.90
9393;DHT22;4736;52.508;13.422;2023-03-07T17:44:19;2.10;74.90
9393;DHT22;4736;52.508;13.422;2023-03-07T17:47:23;2.10;74.90
9393;DHT22;4736;52.508;13.422;2023-03-07T17:50:26;2.10;74.70
9393;DHT22;4736;52.508;13.422;2023-03-07T17:53:29;2.10;74.80
9393;DHT22;4736;52.508;13.422;2023-03-07T17:56:32;2.10;74.70
9393;DHT22;4736;52.508;13.422;2023-03-07T17:59:36;2.10;74.70
9393;DHT22;4736;52.508;13.422;2023-03-07T18:02:43;2.10;74.70
9393;DHT22;4736;52.508;13.422;2023-03-07T18:05:47;2.00;74.80
9393;DHT22;4736;52.508;13.422;2023-03-07T18:08:51;2.00;74.80
9393;DHT22;4736;52.508;13.422;2023-03-07T18:11:54;2.00;74.70
9393;DHT22;4736;52.508;13.422;2023-03-07T18:14:57;2.00;74.60
9393;DHT22;4736;52.508;13.422;2023-03-07T18:18:02;2.00;74.20
9393;DHT22;4736;52.508;13.422;2023-03-07T18:21:10;2.00;74.10
9393;DHT22;4736;52.508;13.422;2023-03-07T18:24:17;2.00;74.20
9393;DHT22;4736;52.508;13.422;2023-03-07T18:27:21;1.90;74.20
9393;DHT22;4736;52.508;13.422;2023-03-07T18:30:25;1.80;74.20
9393;DHT22;4736;52.508;13.422;2023-03-07T18:33:30;1.80;74.20
9393;DHT22;4736;52.508;13.422;2023-03-07T18:36:33;1.90;74.20
9393;DHT22;4736;52.508;13.422;2023-03-07T18:39:37;1.90;74.20
9393;DHT22;4736;52.508;13.422;2023-03-07T18:42:40;1.90;74.30
9393;DHT22;4736;52.508;13.422;2023-03-07T18:45:44;1.90;74.20
9393;DHT22;4736;52.508;13.422;2023-03-07T18:48:50;1.90;74.10
9393;DHT22;4736;52.508;13.422;2023-03-07T18:51:53;1.90;74.10
9393;DHT22;4736;52.508;13.422;2023-03-07T18:54:56;1.80;74.10
9393;DHT22;4736;52.508;13.422;2023-03-07T18:57:59;1.80;74.10
9393;DHT22;4736;52.508;13.422;2023-03-07T19:01:10;1.80;74.10
9393;DHT22;4736;52.508;13.422;2023-03-07T19:04:15;1.80;74.00
9393;DHT22;4736;52.508;13.422;2023-03-07T19:07:18;1.80;73.90
9393;DHT22;4736;52.508;13.422;2023-03-07T19:10:23;1.80;73.60
9393;DHT22;4736;52.508;13.422;2023-03-07T19:13:27;1.80;73.80
9393;DHT22;4736;52.508;13.422;2023-03-07T19:16:30;1.70;73.80
9393;DHT22;4736;52.508;13.422;2023-03-07T19:19:35;1.70;74.00
9393;DHT22;4736;52.508;13.422;2023-03-07T19:22:38;1.70;73.90
9393;DHT22;4736;52.508;13.422;2023-03-07T19:25:41;1.70;74.00
9393;DHT22;4736;52.508;13.422;2023-03-07T19:28:48;1.70;74.20
9393;DHT22;4736;52.508;13.422;2023-03-07T19:31:51;1.70;74.30
9393;DHT22;4736;52.508;13.422;2023-03-07T19:34:56;1.70;74.30
9393;DHT22;4736;52.508;13.422;2023-03-07T19:37:59;1.70;74.10
9393;DHT22;4736;52.508;13.422;2023-03-07T19:41:03;1.70;74.00
9393;DHT22;4736;52.508;13.422;2023-03-07T19:44:06;1.60;74.40
9393;DHT22;4736;52.508;13.422;2023-03-07T19:47:16;1.60;74.30
9393;DHT22;4736;52.508;13.422;2023-03-07T19:50:23;1.60;74.50
9393;DHT22;4736;52.508;13.422;2023-03-07T19:53:27;1.60;74.50
9393;DHT22;4736;52.508;13.422;2023-03-07T19:56:31;1.60;74.60
9393;DHT22;4736;52.508;13.422;2023-03-07T19:59:34;1.60;74.70
9393;DHT22;4736;52.508;13.422;2023-03-07T20:02:37;1.50;74.80
9393;DHT22;4736;52.508;13.422;2023-03-07T20:05:43;1.60;74.90
9393;DHT22;4736;52.508;13.422;2023-03-07T20:08:47;1.50;75.00
9393;DHT22;4736;52.508;13.422;2023-03-07T20:11:50;1.50;74.90
9393;DHT22;4736;52.508;13.422;2023-03-07T20:14:53;1.50;74.90
9393;DHT22;4736;52.508;13.422;2023-03-07T20:17:57;1.50;75.00
9393;DHT22;4736;52.508;13.422;2023-03-07T20:21:05;1.50;75.10
9393;DHT22;4736;52.508;13.422;2023-03-07T20:24:09;1.50;75.10